createdAt,value
2023-04-25T00:00:22.359Z,3.80
2023-04-25T00:02:49.690Z,3.83
2023-04-25T00:05:17.331Z,3.60
2023-04-25T00:07:59.331Z,3.73
2023-04-25T00:10:26.142Z,3.80
2023-04-25T00:12:52.940Z,4.00
2023-04-25T00:15:19.753Z,3.63
2023-04-25T00:17:46.875Z,3.70
2023-04-25T00:20:13.983Z,3.80
2023-04-25T00:22:40.792Z,4.30
2023-04-25T00:25:07.901Z,3.50
2023-04-25T00:27:34.660Z,4.30
2023-04-25T00:30:01.681Z,3.97
2023-04-25T00:32:28.509Z,4.37
2023-04-25T00:34:56.938Z,4.37
2023-04-25T00:37:23.856Z,3.77
2023-04-25T00:39:50.867Z,3.73
2023-04-25T00:42:17.723Z,3.40
2023-04-25T00:44:46.291Z,4.57
2023-04-25T00:47:13.500Z,3.90
2023-04-25T00:49:40.377Z,3.90
2023-04-25T00:52:07.196Z,4.20
2023-04-25T00:54:33.977Z,3.60
2023-04-25T00:57:02.116Z,3.90
2023-04-25T00:59:29.175Z,3.83
2023-04-25T01:01:56.165Z,4.80
2023-04-25T01:04:23.177Z,4.00
2023-04-25T01:06:50.821Z,4.00
2023-04-25T01:09:17.821Z,4.50
2023-04-25T01:11:45.352Z,4.03
2023-04-25T01:14:12.143Z,4.13
2023-04-25T01:16:39.256Z,4.00
2023-04-25T01:19:12.059Z,5.23
2023-04-25T01:21:38.921Z,3.97
2023-04-25T01:24:06.349Z,4.37
2023-04-25T01:26:34.257Z,4.77
2023-04-25T01:29:01.225Z,3.63
2023-04-25T01:31:28.848Z,4.10
2023-04-25T01:33:55.754Z,4.37
2023-04-25T01:36:23.348Z,4.30
2023-04-25T01:38:50.331Z,4.60
2023-04-25T01:41:18.917Z,4.53
2023-04-25T01:43:45.909Z,4.40
2023-04-25T01:46:13.548Z,4.17
2023-04-25T01:48:40.543Z,4.93
2023-04-25T01:51:07.502Z,4.07
2023-04-25T01:53:34.779Z,4.60
2023-04-25T01:56:04.266Z,4.20
2023-04-25T01:58:34.324Z,3.90
2023-04-25T02:01:10.236Z,3.20
2023-04-25T02:03:44.459Z,3.43
2023-04-25T02:06:23.671Z,3.20
2023-04-25T02:08:52.647Z,3.60
2023-04-25T02:11:19.397Z,3.40
2023-04-25T02:13:54.986Z,4.17
2023-04-25T02:16:37.275Z,3.50
2023-04-25T02:19:04.253Z,3.00
2023-04-25T02:21:31.531Z,2.90
2023-04-25T02:23:58.620Z,3.00
2023-04-25T02:26:27.986Z,3.40
2023-04-25T02:28:56.005Z,3.17
2023-04-25T02:31:23.058Z,4.43
2023-04-25T02:33:51.473Z,3.43
2023-04-25T02:36:18.389Z,3.90
2023-04-25T02:38:45.240Z,3.47
2023-04-25T02:41:12.118Z,3.73
2023-04-25T02:43:38.816Z,4.53
2023-04-25T02:46:05.645Z,3.00
2023-04-25T02:48:32.571Z,3.90
2023-04-25T02:50:59.522Z,3.83
2023-04-25T02:53:26.224Z,4.10
2023-04-25T02:55:54.355Z,3.90
2023-04-25T02:58:21.310Z,3.50
2023-04-25T03:00:51.525Z,3.83
2023-04-25T03:03:19.247Z,3.50
2023-04-25T03:05:47.868Z,3.20
2023-04-25T03:08:15.805Z,3.47
2023-04-25T03:10:43.751Z,3.53
2023-04-25T03:13:11.589Z,4.00
2023-04-25T03:15:40.372Z,3.30
2023-04-25T03:18:07.676Z,3.70
2023-04-25T03:20:34.505Z,3.30
2023-04-25T03:23:01.279Z,3.37
2023-04-25T03:25:29.817Z,3.33
2023-04-25T03:27:56.663Z,4.10
2023-04-25T03:30:23.715Z,3.17
2023-04-25T03:32:51.050Z,3.47
2023-04-25T03:35:18.214Z,4.13
2023-04-25T03:37:46.624Z,3.93
2023-04-25T03:40:18.867Z,3.73
2023-04-25T03:43:08.766Z,4.37
2023-04-25T03:45:36.720Z,3.50
2023-04-25T03:48:03.621Z,3.90
2023-04-25T03:50:31.414Z,3.40
2023-04-25T03:52:58.239Z,3.20
2023-04-25T03:55:29.701Z,3.40
2023-04-25T03:57:58.977Z,3.37
2023-04-25T04:00:26.485Z,3.17
2023-04-25T04:02:53.840Z,3.37
2023-04-25T04:05:20.806Z,3.00
2023-04-25T04:07:53.278Z,3.43
2023-04-25T04:10:20.165Z,4.23
2023-04-25T04:12:47.040Z,3.20
2023-04-25T04:15:13.930Z,3.03
2023-04-25T04:17:42.258Z,3.27
2023-04-25T04:20:09.941Z,4.60
2023-04-25T04:22:38.451Z,3.37
2023-04-25T04:25:11.127Z,3.20
2023-04-25T04:28:12.070Z,3.20
2023-04-25T04:30:56.693Z,3.80
2023-04-25T04:33:24.654Z,3.10
2023-04-25T04:35:57.511Z,2.97
2023-04-25T04:38:24.971Z,3.10
2023-04-25T04:40:53.603Z,3.13
2023-04-25T04:43:50.001Z,3.10
2023-04-25T04:46:43.386Z,3.20
2023-04-25T04:49:31.300Z,2.80
2023-04-25T04:52:20.374Z,2.97
2023-04-25T04:55:04.873Z,2.87
2023-04-25T04:57:44.177Z,3.10
2023-04-25T05:00:30.807Z,2.50
2023-04-25T05:03:16.226Z,3.03
2023-04-25T05:06:03.389Z,3.27
2023-04-25T05:09:09.035Z,3.17
2023-04-25T05:11:54.219Z,3.10
2023-04-25T05:14:36.375Z,3.30
2023-04-25T05:17:12.791Z,3.60
2023-04-25T05:19:58.114Z,3.00
2023-04-25T05:22:54.004Z,4.00
2023-04-25T05:25:41.299Z,3.40
2023-04-25T05:28:25.389Z,3.30
2023-04-25T05:31:08.077Z,3.90
2023-04-25T05:33:55.308Z,3.10
2023-04-25T05:36:23.517Z,4.80
2023-04-25T05:38:50.771Z,3.50
2023-04-25T05:41:20.981Z,3.97
2023-04-25T05:43:56.249Z,3.43
2023-04-25T05:46:33.564Z,3.20
2023-04-25T05:49:27.034Z,4.87
2023-04-25T05:52:03.381Z,4.23
2023-04-25T05:54:32.897Z,3.67
2023-04-25T05:57:01.450Z,4.00
2023-04-25T05:59:28.754Z,3.93
2023-04-25T06:01:55.961Z,4.10
2023-04-25T06:04:23.491Z,3.43
2023-04-25T06:06:50.548Z,4.27
2023-04-25T06:09:17.357Z,5.47
2023-04-25T06:11:44.465Z,4.77
2023-04-25T06:14:11.709Z,3.83
2023-04-25T06:16:45.325Z,4.03
2023-04-25T06:19:12.055Z,3.90
2023-04-25T06:21:38.763Z,4.43
2023-04-25T06:24:05.925Z,4.37
2023-04-25T06:26:32.684Z,4.20
2023-04-25T06:28:59.586Z,4.07
2023-04-25T06:31:26.992Z,4.07
2023-04-25T06:33:55.999Z,4.97
2023-04-25T06:36:26.222Z,3.90
2023-04-25T06:38:56.689Z,3.90
2023-04-25T06:41:23.498Z,4.23
2023-04-25T06:43:50.195Z,4.70
2023-04-25T06:46:25.113Z,4.03
2023-04-25T06:48:52.577Z,4.03
2023-04-25T06:51:22.176Z,4.40
2023-04-25T06:53:50.496Z,3.97
2023-04-25T06:56:26.505Z,3.67
2023-04-25T06:59:01.830Z,3.80
2023-04-25T07:01:47.668Z,3.93
2023-04-25T07:04:18.430Z,3.90
2023-04-25T07:06:50.715Z,4.00
2023-04-25T07:09:21.901Z,3.50
2023-04-25T07:11:50.027Z,3.73
2023-04-25T07:14:17.013Z,3.70
2023-04-25T07:16:43.849Z,3.33
2023-04-25T07:19:11.285Z,3.73
2023-04-25T07:21:38.466Z,3.37
2023-04-25T07:24:06.786Z,3.40
2023-04-25T07:26:37.095Z,4.00
2023-04-25T07:29:38.433Z,3.70
2023-04-25T07:32:05.703Z,3.87
2023-04-25T07:34:33.149Z,4.00
2023-04-25T07:37:00.530Z,4.50
2023-04-25T07:39:33.395Z,3.20
2023-04-25T07:42:01.432Z,3.83
2023-04-25T07:44:31.454Z,3.63
2023-04-25T07:46:58.695Z,3.70
2023-04-25T07:49:25.883Z,4.60
2023-04-25T07:51:52.809Z,3.63
2023-04-25T07:54:21.124Z,3.43
2023-04-25T07:56:53.862Z,2.83
2023-04-25T07:59:26.687Z,2.73
2023-04-25T08:01:54.416Z,4.43
2023-04-25T08:04:23.735Z,2.83
2023-04-25T08:06:55.407Z,2.77
2023-04-25T08:09:28.864Z,2.53
2023-04-25T08:11:56.676Z,2.87
2023-04-25T08:14:28.218Z,2.80
2023-04-25T08:16:54.987Z,2.90
2023-04-25T08:19:21.758Z,3.00
2023-04-25T08:21:48.635Z,3.07
2023-04-25T08:24:21.024Z,2.97
2023-04-25T08:26:47.841Z,2.87
2023-04-25T08:29:17.547Z,2.30
2023-04-25T08:31:44.853Z,3.20
2023-04-25T08:34:12.221Z,2.20
2023-04-25T08:36:48.679Z,2.50
2023-04-25T08:39:38.538Z,2.67
2023-04-25T08:42:28.964Z,2.60
2023-04-25T08:44:56.749Z,2.87
2023-04-25T08:47:29.036Z,2.17
2023-04-25T08:49:57.612Z,2.73
2023-04-25T08:52:25.721Z,2.83
2023-04-25T08:54:53.980Z,2.40
2023-04-25T08:57:22.354Z,2.17
2023-04-25T08:59:50.306Z,3.03
2023-04-25T09:02:20.305Z,2.40
2023-04-25T09:04:49.685Z,2.80
2023-04-25T09:07:19.695Z,2.40
2023-04-25T09:09:46.771Z,3.40
2023-04-25T09:12:19.649Z,3.00
2023-04-25T09:15:03.932Z,2.27
2023-04-25T09:17:46.191Z,2.77
2023-04-25T09:20:14.497Z,2.00
2023-04-25T09:22:41.342Z,2.23
2023-04-25T09:25:13.001Z,2.23
2023-04-25T09:27:52.321Z,2.77
2023-04-25T09:30:34.820Z,1.83
2023-04-25T09:33:16.298Z,2.93
2023-04-25T09:35:54.232Z,2.23
2023-04-25T09:38:45.657Z,2.03
2023-04-25T09:41:24.364Z,2.00
2023-04-25T09:43:51.817Z,2.17
2023-04-25T09:46:22.197Z,2.83
2023-04-25T09:48:55.194Z,2.23
2023-04-25T09:51:56.033Z,2.10
2023-04-25T09:54:24.650Z,1.70
2023-04-25T09:56:59.028Z,1.67
2023-04-25T09:59:26.143Z,1.67
2023-04-25T10:01:53.632Z,2.00
2023-04-25T10:04:30.639Z,1.40
2023-04-25T10:07:09.248Z,1.20
2023-04-25T10:09:39.218Z,1.03
2023-04-25T10:12:06.857Z,1.53
2023-04-25T10:14:33.874Z,1.20
2023-04-25T10:17:01.595Z,1.20
2023-04-25T10:19:29.940Z,1.13
2023-04-25T10:22:09.439Z,1.13
2023-04-25T10:24:38.489Z,1.20
2023-04-25T10:27:05.818Z,1.43
2023-04-25T10:29:33.011Z,1.73
2023-04-25T10:31:59.873Z,1.10
2023-04-25T10:34:43.857Z,1.20
2023-04-25T10:37:12.273Z,1.00
2023-04-25T10:39:42.808Z,1.23
2023-04-25T10:42:09.806Z,1.50
2023-04-25T10:44:40.065Z,1.30
2023-04-25T10:47:08.835Z,1.33
2023-04-25T10:49:43.077Z,1.03
2023-04-25T10:52:16.004Z,1.10
2023-04-25T10:54:50.659Z,0.90
2023-04-25T10:57:32.686Z,1.37
2023-04-25T11:00:20.173Z,1.20
2023-04-25T11:02:48.510Z,1.17
2023-04-25T11:08:35.160Z,1.00
2023-04-25T11:11:02.444Z,1.23
2023-04-25T11:13:34.316Z,1.83
2023-04-25T11:19:00.391Z,1.43
2023-04-25T11:21:32.248Z,1.63
2023-04-25T11:24:00.602Z,1.20
2023-04-25T11:26:27.439Z,1.50
2023-04-25T11:28:59.477Z,1.17
2023-04-25T11:31:26.807Z,1.50
2023-04-25T11:33:55.804Z,1.33
2023-04-25T11:36:24.629Z,1.73
2023-04-25T11:38:52.863Z,1.30
2023-04-25T11:41:23.312Z,1.50
2023-04-25T11:43:52.892Z,1.27
2023-04-25T11:46:21.346Z,1.13
2023-04-25T11:48:49.214Z,1.33
2023-04-25T11:51:16.578Z,1.53
2023-04-25T11:53:43.959Z,1.33
2023-04-25T11:56:12.451Z,1.80
2023-04-25T11:59:07.674Z,1.60
2023-04-25T12:01:41.715Z,1.60
2023-04-25T12:04:19.747Z,1.70
2023-04-25T12:06:48.954Z,1.07
2023-04-25T12:09:29.444Z,1.20
2023-04-25T12:11:57.399Z,1.20
2023-04-25T12:14:32.920Z,1.53
2023-04-25T12:17:01.695Z,1.60
2023-04-25T12:19:34.635Z,1.10
2023-04-25T12:22:04.974Z,1.17
2023-04-25T12:24:38.418Z,1.47
2023-04-25T12:27:07.336Z,1.63
2023-04-25T12:29:48.628Z,1.60
2023-04-25T12:32:17.950Z,1.33
2023-04-25T12:34:45.058Z,1.57
2023-04-25T12:37:12.503Z,1.60
2023-04-25T12:39:39.259Z,1.20
2023-04-25T12:42:09.289Z,1.70
2023-04-25T12:44:36.690Z,1.50
2023-04-25T12:47:04.530Z,1.50
2023-04-25T12:49:31.507Z,1.47
2023-04-25T12:51:58.395Z,1.73
2023-04-25T12:54:26.621Z,1.57
2023-04-25T12:56:53.729Z,1.20
2023-04-25T12:59:21.585Z,1.57
2023-04-25T13:01:48.600Z,1.40
2023-04-25T13:04:16.149Z,1.23
2023-04-25T13:06:43.524Z,1.07
2023-04-25T13:09:13.480Z,1.20
2023-04-25T13:11:41.523Z,1.10
2023-04-25T13:14:09.011Z,1.90
2023-04-25T13:16:36.095Z,1.10
2023-04-25T13:19:04.045Z,1.10
2023-04-25T13:21:33.853Z,1.17
2023-04-25T13:24:00.797Z,1.20
2023-04-25T13:26:27.624Z,1.40
2023-04-25T13:28:54.385Z,1.20
2023-04-25T13:31:21.140Z,1.57
2023-04-25T13:33:48.346Z,1.13
2023-04-25T13:36:15.596Z,1.20
2023-04-25T13:38:45.081Z,1.03
2023-04-25T13:41:16.841Z,0.87
2023-04-25T13:43:43.849Z,1.43
2023-04-25T13:46:30.004Z,1.03
2023-04-25T13:49:09.982Z,1.03
2023-04-25T13:51:39.478Z,1.37
2023-04-25T13:54:06.286Z,1.20
2023-04-25T13:56:33.265Z,0.97
2023-04-25T13:59:00.125Z,1.10
2023-04-25T14:01:29.122Z,1.20
2023-04-25T14:03:56.171Z,1.17
2023-04-25T14:06:25.004Z,1.10
2023-04-25T14:08:52.272Z,1.30
2023-04-25T14:11:25.337Z,1.53
2023-04-25T14:13:52.337Z,1.30
2023-04-25T14:16:19.559Z,1.20
2023-04-25T14:18:46.542Z,1.30
2023-04-25T14:21:13.497Z,1.20
2023-04-25T14:23:40.282Z,1.17
2023-04-25T14:26:07.106Z,1.03
2023-04-25T14:28:36.549Z,1.07
2023-04-25T14:31:04.086Z,1.10
2023-04-25T14:33:31.713Z,1.47
2023-04-25T14:35:58.496Z,1.20
2023-04-25T14:38:26.608Z,1.43
2023-04-25T14:40:57.333Z,1.23
2023-04-25T14:43:24.141Z,1.20
2023-04-25T14:45:51.098Z,1.20
2023-04-25T14:48:20.508Z,1.83
2023-04-25T14:50:47.636Z,1.00
2023-04-25T14:53:14.526Z,1.70
2023-04-25T14:55:41.479Z,1.23
2023-04-25T14:58:08.480Z,1.00
2023-04-25T15:00:36.645Z,1.30
2023-04-25T15:03:06.352Z,1.30
2023-04-25T15:05:33.126Z,1.20
2023-04-25T15:07:59.953Z,1.07
2023-04-25T15:10:27.702Z,1.10
2023-04-25T15:12:54.659Z,1.27
2023-04-25T15:15:26.624Z,1.37
2023-04-25T15:17:59.087Z,1.10
2023-04-25T15:20:26.816Z,1.10
2023-04-25T15:22:53.684Z,1.20
2023-04-25T15:25:20.550Z,1.23
2023-04-25T15:27:49.407Z,1.20
2023-04-25T15:30:17.554Z,1.00
2023-04-25T15:32:48.357Z,1.10
2023-04-25T15:35:16.128Z,0.93
2023-04-25T15:37:43.261Z,1.70
2023-04-25T15:40:13.733Z,1.30
2023-04-25T15:42:43.467Z,1.40
2023-04-25T15:45:11.454Z,1.50
2023-04-25T15:47:39.001Z,1.87
2023-04-25T15:50:09.527Z,1.50
2023-04-25T15:52:37.562Z,1.37
2023-04-25T15:55:04.996Z,1.20
2023-04-25T15:57:33.904Z,1.10
2023-04-25T16:00:03.130Z,1.13
2023-04-25T16:02:39.350Z,1.07
2023-04-25T16:05:06.738Z,1.00
2023-04-25T16:07:36.347Z,1.00
2023-04-25T16:10:03.254Z,1.00
2023-04-25T16:12:31.124Z,1.10
2023-04-25T16:14:58.367Z,1.40
2023-04-25T16:17:33.293Z,1.00
2023-04-25T16:20:02.154Z,1.10
2023-04-25T16:22:29.047Z,1.37
2023-04-25T16:24:55.753Z,1.00
2023-04-25T16:27:22.545Z,1.00
2023-04-25T16:29:51.582Z,0.87
2023-04-25T16:32:18.481Z,1.10
2023-04-25T16:34:45.631Z,1.00
2023-04-25T16:37:15.750Z,1.10
2023-04-25T16:39:42.601Z,1.00
2023-04-25T16:42:09.227Z,1.30
2023-04-25T16:44:38.122Z,1.40
2023-04-25T16:47:06.162Z,1.50
2023-04-25T16:49:33.482Z,1.30
2023-04-25T16:52:00.289Z,0.90
2023-04-25T16:54:27.942Z,1.10
2023-04-25T16:56:54.777Z,0.97
2023-04-25T16:59:21.449Z,1.30
2023-04-25T17:01:48.961Z,1.00
2023-04-25T17:04:15.980Z,1.07
2023-04-25T17:06:43.124Z,1.13
2023-04-25T17:09:10.581Z,1.10
2023-04-25T17:11:37.800Z,0.90
2023-04-25T17:14:04.942Z,1.17
2023-04-25T17:16:36.690Z,1.20
2023-04-25T17:19:05.014Z,0.93
2023-04-25T17:21:32.177Z,0.87
2023-04-25T17:23:59.291Z,1.50
2023-04-25T17:26:26.682Z,1.30
2023-04-25T17:28:54.383Z,1.50
2023-04-25T17:31:23.630Z,1.47
2023-04-25T17:33:50.801Z,1.00
2023-04-25T17:36:18.118Z,1.30
2023-04-25T17:38:44.811Z,1.00
2023-04-25T17:41:13.221Z,1.30
2023-04-25T17:43:40.241Z,1.50
2023-04-25T17:46:07.115Z,1.20
2023-04-25T17:48:34.051Z,1.33
2023-04-25T17:51:02.689Z,1.47
2023-04-25T17:53:29.424Z,1.20
2023-04-25T17:55:56.480Z,1.50
2023-04-25T17:58:23.205Z,1.00
2023-04-25T18:00:50.138Z,1.10
2023-04-25T18:03:17.426Z,1.67
2023-04-25T18:05:44.269Z,1.20
2023-04-25T18:08:11.041Z,1.33
2023-04-25T18:10:39.031Z,1.07
2023-04-25T18:13:05.706Z,1.60
2023-04-25T18:15:32.661Z,1.10
2023-04-25T18:17:59.679Z,1.00
2023-04-25T18:20:28.558Z,1.20
2023-04-25T18:22:55.296Z,1.70
2023-04-25T18:25:22.134Z,1.20
2023-04-25T18:27:50.701Z,1.20
2023-04-25T18:30:17.613Z,1.30
2023-04-25T18:32:47.448Z,1.40
2023-04-25T18:35:14.262Z,0.83
2023-04-25T18:37:42.329Z,1.50
2023-04-25T18:40:13.669Z,1.23
2023-04-25T18:42:40.488Z,1.50
2023-04-25T18:45:07.923Z,1.70
2023-04-25T18:47:34.682Z,1.50
2023-04-25T18:50:01.529Z,1.30
2023-04-25T18:52:28.544Z,1.50
2023-04-25T18:54:55.323Z,1.20
2023-04-25T18:57:22.241Z,2.47
2023-04-25T18:59:49.244Z,1.30
2023-04-25T19:02:16.698Z,1.47
2023-04-25T19:04:43.987Z,1.70
2023-04-25T19:07:10.904Z,1.67
2023-04-25T19:09:38.705Z,1.43
2023-04-25T19:12:05.888Z,1.37
2023-04-25T19:14:33.656Z,1.73
2023-04-25T19:17:00.828Z,1.77
2023-04-25T19:19:27.985Z,1.53
2023-04-25T19:21:54.821Z,1.60
2023-04-25T19:24:22.195Z,1.30
2023-04-25T19:26:49.009Z,1.50
2023-04-25T19:29:16.194Z,1.80
2023-04-25T19:31:44.627Z,1.53
2023-04-25T19:34:23.617Z,1.57
2023-04-25T19:36:52.822Z,1.37
2023-04-25T19:39:20.723Z,1.87
2023-04-25T19:41:47.531Z,1.70
2023-04-25T19:44:14.300Z,1.50
2023-04-25T19:46:42.235Z,1.53
2023-04-25T19:49:09.602Z,1.60
2023-04-25T19:51:37.596Z,1.53
2023-04-25T19:54:07.037Z,1.70
2023-04-25T19:56:33.937Z,1.70
2023-04-25T19:59:00.825Z,1.70
2023-04-25T20:01:28.045Z,1.50
2023-04-25T20:03:55.365Z,1.40
2023-04-25T20:06:22.356Z,1.70
2023-04-25T20:08:50.613Z,2.00
2023-04-25T20:11:17.720Z,1.60
2023-04-25T20:13:45.034Z,2.73
2023-04-25T20:16:12.249Z,1.57
2023-04-25T20:18:40.357Z,1.83
2023-04-25T20:21:08.600Z,2.03
2023-04-25T20:23:35.535Z,1.90
2023-04-25T20:26:04.731Z,2.07
2023-04-25T20:28:31.781Z,2.23
2023-04-25T20:30:59.801Z,2.67
2023-04-25T20:33:26.831Z,2.07
2023-04-25T20:35:54.177Z,2.40
2023-04-25T20:38:21.003Z,2.60
2023-04-25T20:40:47.989Z,2.17
2023-04-25T20:43:15.229Z,1.90
2023-04-25T20:45:42.032Z,2.47
2023-04-25T20:48:08.760Z,2.20
2023-04-25T20:50:35.583Z,2.33
2023-04-25T20:53:03.549Z,2.53
2023-04-25T20:55:30.895Z,2.80
2023-04-25T20:57:57.958Z,1.70
2023-04-25T21:00:29.669Z,2.70
2023-04-25T21:02:57.676Z,2.00
2023-04-25T21:05:24.925Z,3.23
2023-04-25T21:07:54.605Z,1.83
2023-04-25T21:10:22.111Z,1.67
2023-04-25T21:12:49.737Z,2.20
2023-04-25T21:15:22.713Z,2.00
2023-04-25T21:17:52.316Z,2.03
2023-04-25T21:20:21.369Z,2.00
2023-04-25T21:22:51.803Z,2.40
2023-04-25T21:25:25.435Z,2.27
2023-04-25T21:27:53.150Z,2.27
2023-04-25T21:30:23.361Z,2.43
2023-04-25T21:32:51.411Z,2.27
2023-04-25T21:35:19.929Z,2.40
2023-04-25T21:37:47.246Z,2.50
2023-04-25T21:40:14.792Z,2.50
2023-04-25T21:42:42.467Z,2.37
2023-04-25T21:45:10.207Z,2.30
2023-04-25T21:47:37.198Z,2.80
2023-04-25T21:50:04.772Z,2.47
2023-04-25T21:52:32.034Z,2.40
2023-04-25T21:55:00.606Z,2.50
2023-04-25T21:57:27.609Z,2.30
2023-04-25T21:59:55.673Z,2.07
2023-04-25T22:02:22.813Z,2.20
2023-04-25T22:04:49.992Z,2.23
2023-04-25T22:07:17.190Z,2.33
2023-04-25T22:09:54.227Z,2.30
2023-04-25T22:12:23.297Z,2.50
2023-04-25T22:14:51.045Z,2.30
2023-04-25T22:17:18.958Z,2.77
2023-04-25T22:19:46.650Z,2.20
2023-04-25T22:22:13.331Z,2.63
2023-04-25T22:24:40.229Z,2.60
2023-04-25T22:27:06.926Z,4.30
2023-04-25T22:29:34.192Z,2.37
2023-04-25T22:32:01.917Z,2.53
2023-04-25T22:34:28.833Z,1.80
2023-04-25T22:36:55.866Z,2.30
2023-04-25T22:39:23.261Z,2.40
2023-04-25T22:41:50.088Z,2.30
2023-04-25T22:44:16.834Z,2.37
2023-04-25T22:46:43.876Z,2.30
2023-04-25T22:49:10.859Z,2.20
2023-04-25T22:51:37.849Z,2.47
2023-04-25T22:54:05.482Z,2.20
2023-04-25T22:56:32.748Z,2.30
2023-04-25T22:58:59.568Z,3.13
2023-04-25T23:01:28.014Z,2.27
2023-04-25T23:03:55.180Z,2.60
2023-04-25T23:06:22.884Z,2.47
2023-04-25T23:08:49.789Z,2.47
2023-04-25T23:11:16.782Z,2.47
2023-04-25T23:13:43.706Z,1.97
2023-04-25T23:16:10.952Z,2.40
2023-04-25T23:18:39.486Z,2.30
2023-04-25T23:21:09.543Z,2.10
2023-04-25T23:23:36.583Z,2.37
2023-04-25T23:26:10.318Z,2.40
2023-04-25T23:28:42.003Z,2.50
2023-04-25T23:31:10.420Z,2.50
2023-04-25T23:33:37.336Z,2.90
2023-04-25T23:36:04.438Z,2.47
2023-04-25T23:38:32.177Z,2.50
2023-04-25T23:40:58.934Z,2.57
2023-04-25T23:43:25.635Z,2.60
2023-04-25T23:45:54.143Z,2.53
2023-04-25T23:48:21.010Z,2.90
2023-04-25T23:50:47.887Z,2.57
2023-04-25T23:53:14.727Z,3.93
2023-04-25T23:55:41.709Z,3.10
2023-04-25T23:58:08.517Z,2.90
